• Join FlightAware (Why Join?)
  • Login
  • US Flag 
10:04PM EDT


 

Airport Tracker/Info


-or-


 

Live Flight TrackerFlight Track Log ✈ AAL1459 ✈ 30-Aug-2013 ✈ KBOS - KDFW

Flight Track Log - Related Links

Times and Time Zones

All times are in EDT time to prevent confusion due to time zone crossing. See the AAL1459 flight status page for this flight to view local times or setup timezone preferences in your user account.

Time Position Orientation Groundspeed Altitude Reporting Facility
EDT Latitude Longitude Course Direction KTS MPH feet Rate Location/Type
03:01PM 42.3130 -70.9180 166° South 268 308 4,000  Level FlightAware
03:02PM 42.3388 -70.7296 166° South  Level FlightAware Approximate
03:02PM 42.3220 -70.8680 76° East 272 313 5,800  Level FlightAware
03:02PM 42.3280 -70.8360 76° East 281 323 6,800 3,120 Climbing FlightAware
03:02PM 42.3310 -70.8100 81° East 289 333 7,600 3,420 Climbing FlightAware
03:02PM 42.3240 -70.7730 104° East 298 343 8,800 2,880 Climbing FlightAware
03:03PM 42.3210 -70.7630 112° Southeast 302 348 9,100 2,760 Climbing FlightAware
03:03PM 42.3140 -70.7480 122° Southeast 305 351 9,500 3,840 Climbing FlightAware
03:03PM 42.3050 -70.7350 133° Southeast 308 354 10,000 2,400 Climbing FlightAware
03:03PM 42.2920 -70.7240 148° Southeast 310 357 10,300 1,500 Climbing FlightAware
03:03PM 42.2770 -70.7190 166° South 329 379 10,500 1,560 Climbing FlightAware
03:04PM 42.2210 -70.7310 189° South 349 402 11,600 2,160 Climbing FlightAware
03:04PM 42.2000 -70.7500 214° Southwest 348 400 12,300 3,240 Climbing FlightAware
03:04PM 42.1820 -70.7860 236° Southwest 349 402 13,300 2,760 Climbing FlightAware
03:05PM 42.1720 -70.8490 258° West 351 404 14,600 2,520 Climbing FlightAware
03:06PM 42.1710 -70.9460 269° West 359 413 16,500 2,400 Climbing FlightAware
03:06PM 42.1710 -71.0120 270° West 367 422 17,600 2,160 Climbing FlightAware
03:07PM 42.1710 -71.0900 270° West 374 430 18,900 2,340 Climbing FlightAware
03:08PM 42.1710 -71.2210 270° West 383 441 21,100 2,220 Climbing FlightAware
03:08PM 42.1710 -71.2670 270° West 391 450 21,900 1,800 Climbing FlightAware
03:09PM 42.1710 -71.3850 270° West 397 457 23,100 1,680 Climbing FlightAware
03:09PM 42.1710 -71.4930 270° West 410 472 24,300 1,680 Climbing FlightAware
03:10PM 42.1710 -71.5970 270° West 416 479 25,500 1,800 Climbing FlightAware
03:11PM 42.1700 -71.7020 269° West 420 483 26,700 1,320 Climbing FlightAware
03:11PM 42.1700 -71.7780 270° West 428 493 27,300 1,020 Climbing FlightAware
03:12PM 42.1690 -71.8940 269° West 441 507 28,000 600 Climbing FlightAware
03:13PM 42.1690 -71.9970 270° West 442 509 28,000  Level FlightAware
03:13PM 42.1680 -72.0930 269° West 440 506 28,000 480 Level FlightAware
03:14PM 42.1670 -72.1820 269° West 442 509 28,600 1,260 Climbing FlightAware
03:14PM 42.1670 -72.2770 270° West 443 510 29,500 1,620 Climbing FlightAware
03:15PM 42.1650 -72.3930 269° West 441 507 30,700 1,620 Climbing FlightAware
03:16PM 42.1640 -72.4930 269° West 441 507 31,600 1,440 Climbing FlightAware
03:16PM 42.1630 -72.5940 269° West 438 504 32,500 1,500 Climbing FlightAware
03:17PM 42.1600 -72.6830 267° West 438 504 33,300 1,320 Climbing FlightAware
03:17PM 42.1350 -72.7610 247° West 450 518 34,000 1,260 Climbing FlightAware
03:18PM 42.0800 -72.8570 232° Southwest 449 517 34,900 1,200 Climbing FlightAware
03:19PM 42.0420 -72.9220 232° Southwest 447 514 35,500 1,260 Climbing FlightAware
03:19PM 41.9890 -73.0110 231° Southwest 442 509 36,400 1,200 Climbing FlightAware
03:20PM 41.9510 -73.0720 230° Southwest 441 507 36,900 900 Climbing FlightAware
03:20PM 41.9060 -73.1410 229° Southwest 440 506 37,400 840 Climbing FlightAware
03:21PM 41.8580 -73.2160 229° Southwest 440 506 37,900 480 Climbing FlightAware
03:21PM 41.8110 -73.2900 230° Southwest 441 507 38,000 60 Climbing FlightAware
03:22PM 41.7530 -73.3780 229° Southwest 439 505 38,000  Level FlightAware
03:23PM 41.7100 -73.4440 229° Southwest 437 503 38,000  Level FlightAware
03:23PM 41.6600 -73.5230 230° Southwest 434 499 38,000  Level FlightAware
03:24PM 41.6170 -73.5900 229° Southwest 433 498 38,000  Level FlightAware
03:24PM 41.5780 -73.6500 229° Southwest 432 497 38,000  Level FlightAware
03:25PM 41.5150 -73.7460 229° Southwest 430 495 38,000  Level FlightAware
03:26PM 41.4700 -73.8140 229° Southwest 430 495 38,000  Level FlightAware
03:27PM 41.4087 -73.9076 229° Southwest 38,000  Level FlightAware ADS-B
03:28PM 41.3348 -74.0292 231° Southwest 425 489 38,000  Level FlightAware ADS-B
03:28PM 41.3013 -74.0945 236° Southwest 425 489 38,000  Level FlightAware ADS-B
03:29PM 41.2610 -74.1710 235° Southwest 424 488 38,000  Level FlightAware
03:29PM 41.2150 -74.2600 236° Southwest 423 487 38,000  Level FlightAware
03:30PM 41.1780 -74.3310 235° Southwest 424 488 38,000  Level FlightAware
03:30PM 41.1430 -74.3980 235° Southwest 425 489 38,000  Level FlightAware
03:31PM 41.1010 -74.4770 235° Southwest 427 491 38,000  Level FlightAware
03:32PM 41.0590 -74.5590 236° Southwest 428 493 38,000  Level FlightAware
03:32PM 41.0210 -74.6310 235° Southwest 429 494 38,000  Level FlightAware
03:33PM 40.9830 -74.7020 235° Southwest 430 495 38,000  Level FlightAware
03:33PM 40.9430 -74.7770 235° Southwest 429 494 38,000  Level FlightAware
03:34PM 40.9010 -74.8560 235° Southwest 430 495 38,000  Level FlightAware
03:35PM 40.8600 -74.9330 235° Southwest 430 495 38,000  Level FlightAware
03:35PM 40.8250 -74.9990 235° Southwest 430 495 38,000  Level FlightAware
03:36PM 40.7800 -75.0830 235° Southwest 430 495 38,000  Level FlightAware
03:36PM 40.7470 -75.1440 234° Southwest 430 495 38,000  Level FlightAware
03:37PM 40.7040 -75.2240 235° Southwest 430 495 38,000  Level FlightAware
03:37PM 40.6630 -75.3010 235° Southwest 430 495 38,000  Level FlightAware
03:38PM 40.6220 -75.3760 234° Southwest 430 495 38,000  Level FlightAware
03:39PM 40.5780 -75.4580 235° Southwest 430 495 38,000  Level FlightAware
03:39PM 40.5400 -75.5280 234° Southwest 430 495 38,000  Level FlightAware
03:40PM 40.4980 -75.6050 234° Southwest 430 495 38,000  Level FlightAware
03:40PM 40.4600 -75.6750 235° Southwest 429 494 38,000  Level FlightAware
03:41PM 40.4210 -75.7450 234° Southwest 429 494 38,000  Level FlightAware
03:42PM 40.3750 -75.8310 235° Southwest 428 493 38,000  Level FlightAware
03:42PM 40.3440 -75.9040 241° Southwest 421 484 38,000  Level FlightAware
03:43PM 40.3170 -75.9920 248° West 420 483 38,000  Level FlightAware
03:43PM 40.2920 -76.0730 248° West 420 483 38,000  Level FlightAware
03:44PM 40.2650 -76.1620 248° West 420 483 38,000  Level FlightAware
03:44PM 40.2430 -76.2320 248° West 420 483 38,000  Level FlightAware
03:45PM 40.2180 -76.3130 248° West 420 483 38,000  Level FlightAware
03:46PM 40.1900 -76.4050 248° West 422 486 38,000  Level FlightAware
03:46PM 40.1660 -76.4820 248° West 422 486 38,000  Level FlightAware
03:47PM 40.1400 -76.5640 247° West 423 487 38,000  Level FlightAware
03:47PM 40.1150 -76.6450 248° West 423 487 38,000  Level FlightAware
03:48PM 40.0900 -76.7220 247° West 425 489 38,000  Level FlightAware
03:49PM 40.0630 -76.8080 248° West 425 489 38,000  Level FlightAware
03:49PM 40.0330 -76.9050 248° West 425 489 38,000  Level FlightAware
03:50PM 40.0090 -76.9790 247° West 425 489 38,000  Level FlightAware
03:50PM 39.9830 -77.0610 248° West 425 489 38,000  Level FlightAware
03:51PM 39.9590 -77.1370 248° West 425 489 38,000  Level FlightAware
03:51PM 39.9300 -77.2280 247° West 425 489 38,000  Level FlightAware
03:52PM 39.9030 -77.3100 247° West 424 488 38,000  Level FlightAware
03:53PM 39.8770 -77.3910 247° West 425 489 38,000  Level FlightAware
03:53PM 39.8510 -77.4710 247° West 424 488 38,000  Level FlightAware
03:54PM 39.8220 -77.5620 247° West 424 488 38,000  Level FlightAware
03:54PM 39.7970 -77.6390 247° West 425 489 38,000  Level FlightAware
03:55PM 39.7680 -77.7280 247° West 424 488 38,000  Level FlightAware
03:56PM 39.7450 -77.7980 247° West 423 487 38,000  Level FlightAware
03:56PM 39.7170 -77.8840 247° West 423 487 38,000  Level FlightAware
03:57PM 39.6870 -77.9730 246° West 423 487 38,000  Level FlightAware
03:57PM 39.6640 -78.0430 247° West 422 486 38,000  Level FlightAware
03:58PM 39.6350 -78.1300 247° West 423 487 38,000  Level FlightAware
03:59PM 39.6060 -78.2190 247° West 423 487 38,000  Level FlightAware
03:59PM 39.5830 -78.2880 247° West 423 487 38,000  Level FlightAware
04:00PM 39.5560 -78.3690 247° West 424 488 38,000  Level FlightAware
04:00PM 39.5270 -78.4560 247° West 424 488 38,000  Level FlightAware
04:01PM 39.4990 -78.5370 246° West 425 489 38,000  Level FlightAware
04:01PM 39.4720 -78.6180 247° West 425 489 38,000  Level FlightAware
04:02PM 39.4440 -78.7030 247° West 425 489 38,000  Level FlightAware
04:03PM 39.4170 -78.7830 246° West 425 489 38,000  Level FlightAware
04:03PM 39.3910 -78.8570 246° West 425 489 38,000  Level FlightAware
04:04PM 39.3630 -78.9410 247° West 424 488 38,000  Level FlightAware
04:04PM 39.3370 -79.0170 246° West 426 490 38,000  Level FlightAware
04:05PM 39.3070 -79.1050 246° West 426 490 38,000  Level FlightAware
04:05PM 39.2780 -79.1890 246° West 426 490 38,000  Level FlightAware
04:06PM 39.2530 -79.2620 246° West 426 490 38,000  Level FlightAware
04:07PM 39.2220 -79.3510 246° West 427 491 38,000  Level FlightAware
04:07PM 39.1930 -79.4350 246° West 428 493 38,000  Level FlightAware
04:08PM 39.1650 -79.5140 245° Southwest 427 491 38,000  Level FlightAware
04:08PM 39.1370 -79.5960 246° West 426 490 38,000  Level FlightAware
04:09PM 39.1100 -79.6720 245° Southwest 426 490 38,000  Level FlightAware
04:09PM 39.0830 -79.7510 246° West 426 490 38,000  Level FlightAware
04:10PM 39.0520 -79.8390 246° West 427 491 38,000  Level FlightAware
04:11PM 39.0220 -79.9220 245° Southwest 427 491 38,000  Level FlightAware
04:11PM 39.0090 -79.9590 246° West 428 493 38,000  Level FlightAware
04:12PM 38.9680 -80.0760 246° West 429 494 38,000  Level FlightAware
04:12PM 38.9410 -80.1510 245° Southwest 430 495 38,000  Level FlightAware
04:13PM 38.9100 -80.2390 246° West 432 497 38,000  Level FlightAware
04:14PM 38.8830 -80.3150 245° Southwest 432 497 38,000  Level FlightAware
04:14PM 38.8520 -80.4000 245° Southwest 432 497 38,000  Level FlightAware
04:15PM 38.8260 -80.4720 245° Southwest 431 496 38,000  Level FlightAware
04:15PM 38.7970 -80.5550 246° West 430 495 38,000  Level FlightAware
04:16PM 38.7730 -80.6330 248° West 429 494 38,000  Level FlightAware
04:16PM 38.7460 -80.7260 250° West 429 494 38,000  Level FlightAware
04:17PM 38.7230 -80.8060 250° West 429 494 38,000  Level FlightAware
04:18PM 38.7000 -80.8880 250° West 430 495 38,000  Level FlightAware
04:18PM 38.6750 -80.9710 249° West 432 497 38,000  Level FlightAware
04:19PM 38.6490 -81.0600 250° West 432 497 38,000  Level FlightAware
04:19PM 38.6250 -81.1420 249° West 432 497 38,000  Level FlightAware
04:20PM 38.5990 -81.2300 249° West 432 497 38,000  Level FlightAware
04:21PM 38.5760 -81.3080 249° West 432 497 38,000  Level FlightAware
04:21PM 38.5530 -81.3840 249° West 433 498 38,000  Level FlightAware
04:22PM 38.5270 -81.4740 250° West 432 497 38,000  Level FlightAware
04:22PM 38.5000 -81.5620 249° West 433 498 38,000  Level FlightAware
04:23PM 38.4750 -81.6480 250° West 434 499 38,000  Level FlightAware
04:23PM 38.4520 -81.7240 249° West 435 501 38,000  Level FlightAware
04:24PM 38.4270 -81.8060 249° West 437 503 38,000  Level FlightAware
04:25PM 38.3945 -81.9138 249° West 438 504 38,000  Level FlightAware ADS-B
04:25PM 38.3693 -81.9969 249° West 439 505 38,000  Level FlightAware ADS-B
04:26PM 38.3451 -82.0762 249° West 440 506 38,000  Level FlightAware ADS-B
04:26PM 38.3220 -82.1520 249° West 440 506 38,000  Level FlightAware
04:27PM 38.2991 -82.2269 249° West 441 507 38,000  Level FlightAware ADS-B
04:28PM 38.2727 -82.3128 249° West 441 507 38,000  Level FlightAware ADS-B
04:28PM 38.2404 -82.4176 249° West 442 509 38,000  Level FlightAware ADS-B
04:29PM 38.2157 -82.4980 249° West 442 509 38,000  Level FlightAware ADS-B
04:29PM 38.1930 -82.5700 248° West 441 507 38,000  Level FlightAware
04:30PM 38.1680 -82.6514 249° West 442 509 38,000  Level FlightAware ADS-B
04:31PM 38.1386 -82.7454 248° West 442 509 38,000  Level FlightAware ADS-B
04:31PM 38.1142 -82.8235 248° West 443 510 38,000  Level FlightAware ADS-B
04:32PM 38.0910 -82.8990 249° West 443 510 38,000  Level FlightAware
04:32PM 38.0610 -82.9950 248° West 442 509 38,000  Level FlightAware
04:33PM 38.0330 -83.0810 248° West 442 509 38,000  Level FlightAware
04:33PM 38.0070 -83.1640 248° West 443 510 38,000  Level FlightAware
04:34PM 37.9787 -83.2537 248° West 445 512 38,000  Level FlightAware ADS-B
04:35PM 37.9555 -83.3264 248° West 445 512 38,000  Level FlightAware ADS-B
04:35PM 37.9276 -83.4137 248° West 445 512 38,000  Level FlightAware ADS-B
04:36PM 37.8973 -83.5083 248° West 445 512 38,000  Level FlightAware ADS-B
04:36PM 37.8715 -83.5888 248° West 446 513 38,000  Level FlightAware ADS-B
04:37PM 37.8440 -83.6740 248° West 448 516 38,000  Level FlightAware
04:37PM 37.8190 -83.7520 248° West 448 516 38,000  Level FlightAware
04:38PM 37.8017 -83.8051 248° West 448 516 38,000  Level FlightAware ADS-B
04:39PM 37.7583 -83.9388 248° West 448 516 38,000  Level FlightAware ADS-B
04:40PM 37.7090 -84.0910 248° West 447 514 38,000  Level FlightAware
04:40PM 37.6810 -84.1760 247° West 447 514 38,000  Level FlightAware
04:41PM 37.6604 -84.2377 247° West 447 514 38,000  Level FlightAware ADS-B
04:42PM 37.6278 -84.3368 247° West 446 513 38,000  Level FlightAware ADS-B
04:42PM 37.6039 -84.4092 247° West 446 513 38,000  Level FlightAware ADS-B
04:43PM 37.5787 -84.4849 247° West 447 514 38,000  Level FlightAware ADS-B
04:43PM 37.5487 -84.5750 247° West 448 516 38,000  Level FlightAware ADS-B
04:44PM 37.5190 -84.6643 247° West 447 514 38,000  Level FlightAware ADS-B
04:44PM 37.4939 -84.7399 247° West 449 517 38,000  Level FlightAware ADS-B
04:45PM 37.4590 -84.8430 247° West 448 516 38,000  Level FlightAware
04:45PM 37.4504 -84.8693 248° West 448 516 38,000  Level FlightAware ADS-B
04:46PM 37.4254 -84.9437 247° West 449 517 38,000  Level FlightAware ADS-B
04:46PM 37.3999 -85.0193 247° West 449 517 38,000  Level FlightAware ADS-B
04:47PM 37.3750 -85.0927 247° West 450 518 38,000  Level FlightAware ADS-B
04:47PM 37.3502 -85.1658 247° West 451 519 38,000  Level FlightAware ADS-B
04:48PM 37.3254 -85.2388 247° West 451 519 38,000  Level FlightAware ADS-B
04:48PM 37.2966 -85.3235 247° West 451 519 38,000  Level FlightAware ADS-B
04:49PM 37.2702 -85.4004 247° West 452 520 38,000  Level FlightAware ADS-B
04:49PM 37.2449 -85.4742 247° West 452 520 38,000  Level FlightAware ADS-B
04:50PM 37.2185 -85.5508 247° West 452 520 38,000  Level FlightAware ADS-B
04:50PM 37.1925 -85.6264 247° West 452 520 38,000  Level FlightAware ADS-B
04:51PM 37.1668 -85.7012 247° West 451 519 38,000  Level FlightAware ADS-B
04:52PM 37.1369 -85.7875 247° West 451 519 38,000  Level FlightAware ADS-B
04:52PM 37.1120 -85.8595 247° West 451 519 38,000  Level FlightAware ADS-B
04:53PM 37.0900 -85.9230 247° West 451 519 38,000  Level FlightAware
04:53PM 37.0703 -85.9794 246° West 451 519 38,000  Level FlightAware ADS-B
04:54PM 37.0290 -86.0970 246° West 450 518 38,000  Level FlightAware
04:55PM 36.9880 -86.2160 247° West 451 519 38,000  Level FlightAware
04:55PM 36.9570 -86.3020 246° West 450 518 38,000  Level FlightAware
04:56PM 36.9270 -86.3860 246° West 449 517 38,000  Level FlightAware
04:56PM 36.8988 -86.4661 246° West 449 517 38,000  Level FlightAware ADS-B
04:57PM 36.8696 -86.5485 246° West 446 513 38,000  Level FlightAware ADS-B
04:58PM 36.8411 -86.6285 246° West 443 510 38,000  Level FlightAware ADS-B
04:58PM 36.8143 -86.7038 246° West 441 507 38,000  Level FlightAware ADS-B
04:59PM 36.7887 -86.7754 246° West 439 505 38,000  Level FlightAware ADS-B
04:59PM 36.7595 -86.8572 246° West 439 505 38,000  Level FlightAware ADS-B
05:00PM 36.7232 -86.9587 246° West 437 503 38,000  Level FlightAware ADS-B
05:00PM 36.6955 -87.0354 246° West 435 501 38,000  Level FlightAware ADS-B
05:01PM 36.6660 -87.1180 246° West 433 498 38,000  Level FlightAware
05:02PM 36.6370 -87.1950 245° Southwest 433 498 38,000  Level FlightAware
05:02PM 36.6090 -87.2730 246° West 433 498 38,000  Level FlightAware
05:03PM 36.5800 -87.3530 246° West 434 499 38,000  Level FlightAware
05:03PM 36.5510 -87.4310 245° Southwest 434 499 38,000  Level FlightAware
05:04PM 36.5200 -87.5180 246° West 434 499 38,000  Level FlightAware
05:05PM 36.4940 -87.5890 246° West 434 499 38,000  Level FlightAware
05:05PM 36.4620 -87.6760 245° Southwest 434 499 38,000  Level FlightAware
05:06PM 36.4340 -87.7510 245° Southwest 434 499 38,000  Level FlightAware
05:06PM 36.4040 -87.8310 245° Southwest 433 498 38,000  Level FlightAware
05:07PM 36.3770 -87.9050 246° West 433 498 38,000  Level FlightAware
05:07PM 36.3450 -87.9890 245° Southwest 432 497 38,000  Level FlightAware
05:08PM 36.3150 -88.0700 245° Southwest 432 497 38,000  Level FlightAware
05:09PM 36.2890 -88.1400 245° Southwest 431 496 38,000  Level FlightAware
05:09PM 36.2530 -88.2360 245° Southwest 429 494 38,000  Level FlightAware
05:10PM 36.2220 -88.3170 245° Southwest 428 493 38,000  Level FlightAware
05:11PM 36.1960 -88.3870 245° Southwest 428 493 38,000  Level FlightAware
05:11PM 36.1560 -88.4930 245° Southwest 428 493 38,000  Level FlightAware
05:12PM 36.1320 -88.5570 245° Southwest 428 493 38,000  Level FlightAware
05:13PM 36.1050 -88.6290 245° Southwest 428 493 38,000  Level FlightAware
05:13PM 36.0810 -88.6930 245° Southwest 428 493 38,000  Level FlightAware
05:14PM 36.0540 -88.7650 245° Southwest 428 493 38,000  Level FlightAware
05:14PM 36.0280 -88.8330 245° Southwest 428 493 38,000  Level FlightAware
05:15PM 36.0020 -88.9010 245° Southwest 428 493 38,000  Level FlightAware
05:16PM 35.9770 -88.9680 245° Southwest 428 493 38,000  Level FlightAware
05:16PM 35.9510 -89.0360 245° Southwest 428 493 38,000  Level FlightAware
05:17PM 35.9270 -89.1000 245° Southwest 428 493 38,000  Level FlightAware
05:17PM 35.9010 -89.1680 245° Southwest 428 493 38,000  Level FlightAware
05:18PM 35.8750 -89.2380 245° Southwest 428 493 38,000  Level FlightAware
05:19PM 35.8480 -89.3090 245° Southwest 428 493 38,000  Level FlightAware
05:19PM 35.8220 -89.3790 245° Southwest 428 493 38,000  Level FlightAware
05:20PM 35.7042 -89.6567 245° Southwest 429 494 38,000  Level Memphis Center
05:26PM 35.4030 -90.4250 245° Southwest 424 488 38,000  Level FlightAware
05:27PM 35.3730 -90.4980 243° Southwest 424 488 38,000  Level FlightAware
05:27PM 35.3400 -90.5780 243° Southwest 424 488 38,000  Level FlightAware
05:28PM 35.3110 -90.6530 245° Southwest 424 488 38,000  Level FlightAware
05:28PM 35.2820 -90.7220 243° Southwest 426 490 38,000  Level FlightAware
05:29PM 35.2500 -90.8020 244° Southwest 425 489 38,000  Level FlightAware
05:29PM 35.2170 -90.8810 243° Southwest 426 490 38,000  Level FlightAware
05:30PM 35.1870 -90.9560 244° Southwest 427 491 38,000  Level FlightAware
05:31PM 35.1550 -91.0350 244° Southwest 427 491 38,000  Level FlightAware
05:31PM 35.1260 -91.1060 243° Southwest 429 494 38,000  Level FlightAware
05:32PM 35.0970 -91.1750 243° Southwest 428 493 38,000  Level FlightAware
05:32PM 35.0690 -91.2430 243° Southwest 428 493 38,000  Level FlightAware
05:33PM 35.0360 -91.3240 244° Southwest 427 491 38,000  Level FlightAware
05:33PM 35.0070 -91.3940 243° Southwest 427 491 38,000  Level FlightAware
05:34PM 34.9750 -91.4700 243° Southwest 427 491 38,000  Level FlightAware
05:35PM 34.9440 -91.5460 244° Southwest 427 491 38,000  Level FlightAware
05:35PM 34.9140 -91.6180 243° Southwest 427 491 38,000  Level FlightAware
05:36PM 34.8790 -91.7030 243° Southwest 429 494 38,000  Level FlightAware
05:36PM 34.8520 -91.7670 243° Southwest 430 495 38,000  Level FlightAware
05:37PM 34.8190 -91.8470 243° Southwest 430 495 38,000  Level FlightAware
05:38PM 34.7850 -91.9270 243° Southwest 430 495 38,000  Level FlightAware
05:38PM 34.7550 -91.9970 242° Southwest 431 496 38,000  Level FlightAware
05:39PM 34.7230 -92.0720 243° Southwest 431 496 38,000  Level FlightAware
05:39PM 34.6930 -92.1430 243° Southwest 431 496 38,000  Level FlightAware
05:40PM 34.6630 -92.2360 249° West 432 497 38,000  Level FlightAware
05:40PM 34.6440 -92.3100 253° West 432 497 38,000  Level FlightAware
05:41PM 34.6220 -92.3920 252° West 432 497 38,000  Level FlightAware
05:42PM 34.6000 -92.4760 252° West 433 498 38,000  Level FlightAware
05:42PM 34.5780 -92.5600 252° West 434 499 38,000  Level FlightAware
05:43PM 34.5580 -92.6350 252° West 435 501 38,000  Level FlightAware
05:43PM 34.5390 -92.7070 252° West 434 499 38,000  Level FlightAware
05:44PM 34.5150 -92.7980 252° West 432 497 38,000  Level FlightAware
05:45PM 34.4920 -92.8820 252° West 431 496 38,000  Level FlightAware
05:45PM 34.4730 -92.9550 252° West 431 496 38,000  Level FlightAware
05:46PM 34.4530 -93.0290 252° West 430 495 38,000  Level FlightAware
05:46PM 34.4310 -93.1090 252° West 430 495 38,000  Level FlightAware
05:47PM 34.4070 -93.1990 252° West 429 494 38,000  Level FlightAware
05:48PM 34.3840 -93.2810 251° West 430 495 38,000  Level FlightAware
05:48PM 34.3590 -93.3740 252° West 431 496 38,000  Level FlightAware
05:49PM 34.3410 -93.4390 251° West 433 498 38,000  Level FlightAware
05:49PM 34.3190 -93.5220 252° West 433 498 38,000  Level FlightAware
05:50PM 34.2930 -93.6140 251° West 435 501 38,000  Level FlightAware
05:50PM 34.2750 -93.6810 252° West 436 502 38,000  Level FlightAware
05:51PM 34.2480 -93.7760 251° West 437 503 38,000  Level FlightAware
05:52PM 34.2300 -93.8430 252° West 438 504 38,000  Level FlightAware
05:52PM 34.2040 -93.9370 252° West 439 505 38,000  Level FlightAware
05:53PM 34.1760 -94.0380 251° West 441 507 38,000  Level FlightAware
05:54PM 34.1520 -94.1210 251° West 441 507 38,000  Level FlightAware
05:54PM 34.1320 -94.1920 251° West 441 507 38,000  Level FlightAware
05:55PM 34.1110 -94.2640 251° West 441 507 38,000 -1,380 Level FlightAware
05:56PM 34.0780 -94.3850 252° West 438 504 36,300 -2,160 Descending FlightAware
05:56PM 34.0530 -94.4740 251° West 443 510 35,300 -1,020 Descending FlightAware
05:57PM 34.0220 -94.5830 251° West 440 506 34,900 -300 Descending FlightAware
05:58PM 34.0010 -94.6540 250° West 440 506 34,900  Level FlightAware
05:58PM 33.9810 -94.7270 252° West 440 506 34,900 -1,740 Level FlightAware
05:59PM 33.9470 -94.8450 251° West 419 482 32,700 -2,280 Descending FlightAware
05:59PM 33.9250 -94.9190 250° West 420 483 32,100 -1,020 Descending FlightAware
06:00PM 33.9050 -94.9900 251° West 419 482 31,600 -960 Descending FlightAware
06:01PM 33.8800 -95.0740 250° West 421 484 31,000 -960 Descending FlightAware
06:01PM 33.8580 -95.1500 251° West 426 490 30,500 -1,020 Descending FlightAware
06:02PM 33.8370 -95.2250 251° West 432 497 29,900 -1,020 Descending FlightAware
06:02PM 33.8130 -95.3050 250° West 436 502 29,400 -600 Descending FlightAware
06:03PM 33.7840 -95.4040 251° West 437 503 29,100 -1,020 Descending FlightAware
06:04PM 33.7500 -95.4830 243° Southwest 443 510 28,100 -2,220 Descending FlightAware
06:04PM 33.7180 -95.5630 244° Southwest 437 503 26,600 -2,580 Descending FlightAware
06:05PM 33.6890 -95.6350 244° Southwest 432 497 25,100 -2,820 Descending FlightAware
06:05PM 33.6580 -95.7130 244° Southwest 433 498 23,400 -2,880 Descending FlightAware
06:06PM 33.6280 -95.7870 244° Southwest 432 497 21,800 -2,880 Descending FlightAware
06:06PM 33.5980 -95.8610 244° Southwest 425 489 20,200 -2,760 Descending FlightAware
06:07PM 33.5680 -95.9350 244° Southwest 419 482 18,600 -2,700 Descending FlightAware
06:08PM 33.5400 -96.0060 245° Southwest 415 478 17,100 -2,760 Descending FlightAware
06:08PM 33.5100 -96.0800 244° Southwest 404 465 15,400 -2,760 Descending FlightAware
06:09PM 33.4800 -96.1510 243° Southwest 392 451 13,800 -2,520 Descending FlightAware
06:09PM 33.4530 -96.2180 244° Southwest 381 438 12,400 -1,920 Descending FlightAware
06:10PM 33.4250 -96.2850 243° Southwest 358 412 11,500 -1,140 Descending FlightAware
06:11PM 33.3970 -96.3300 233° Southwest 340 391 11,200 -660 Descending FlightAware
06:11PM 33.3700 -96.4000 245° Southwest 302 348 10,700 -960 Descending FlightAware
06:12PM 33.3490 -96.4570 246° West 293 337 9,900 -1,380 Descending FlightAware
06:12PM 33.3390 -96.4870 248° West 291 335 9,400 -1,500 Descending FlightAware
06:13PM 33.3280 -96.5170 246° West 289 333 8,900 -1,380 Descending FlightAware
06:13PM 33.3170 -96.5470 246° West 290 334 8,500 -1,080 Descending FlightAware
06:13PM 33.3070 -96.5750 247° West 290 334 8,200 -1,260 Descending FlightAware
06:14PM 33.2940 -96.6110 247° West 288 331 7,600 -1,740 Descending FlightAware
06:14PM 33.2800 -96.6350 235° Southwest 290 334 7,000 -1,560 Descending FlightAware
06:14PM 33.2620 -96.6650 234° Southwest 287 330 6,500 -1,320 Descending FlightAware
06:15PM 33.2480 -96.6880 234° Southwest 282 325 6,100 -1,440 Descending FlightAware
06:15PM 33.2280 -96.7210 234° Southwest 279 321 5,500 -1,380 Descending FlightAware
06:15PM 33.2130 -96.7440 232° Southwest 273 314 5,100 -960 Descending FlightAware
06:16PM 33.2040 -96.7600 236° Southwest 275 316 5,000 -240 Descending FlightAware
06:16PM 33.1890 -96.7840 233° Southwest 274 315 5,000  Level FlightAware
06:16PM 33.1700 -96.8140 233° Southwest 273 314 5,000 -300 Level FlightAware
06:17PM 33.1560 -96.8380 235° Southwest 272 313 4,800 -1,140 Descending FlightAware
06:17PM 33.1440 -96.8580 234° Southwest 275 316 4,300 -1,680 Descending FlightAware
06:17PM 33.1270 -96.8860 234° Southwest 274 315 3,700 -1,140 Descending FlightAware
06:18PM 33.1100 -96.9130 233° Southwest 262 302 3,500 -720 Descending FlightAware
06:18PM 33.0970 -96.9350 235° Southwest 253 291 3,200 -720 Descending FlightAware
06:18PM 33.0800 -96.9630 234° Southwest 247 284 3,000 -300 Descending FlightAware
06:19PM 33.0690 -96.9790 231° Southwest 234 269 3,000  Level FlightAware
06:19PM 33.0570 -96.9970 232° Southwest 215 247 3,000  Level FlightAware
06:19PM 33.0520 -97.0010 214° Southwest 213 245 3,000 -420 Level FlightAware
06:19PM 33.0440 -97.0080 216° Southwest 209 241 2,900 -660 Descending FlightAware
06:20PM 33.0290 -97.0180 209° Southwest 199 229 2,700 -780 Descending FlightAware
06:20PM 33.0110 -97.0240 196° South 198 228 2,400 -1,020 Descending FlightAware
06:20PM 33.0020 -97.0250 185° South 194 223 2,200 -1,140 Descending FlightAware
06:20PM 32.9830 -97.0260 183° South 177 204 1,800 -420 Descending FlightAware
06:21PM 32.9600 -97.0250 178° South 176 203 1,800 -720 Level FlightAware
06:22PM 32.9331 -97.0272 178° South 179 206 1,000 -720 Descending Fort Worth Center
06:23PM 32.8914 -97.0397 194° South 174 200 700 -300 Descending Fort Worth Center